Brooks, Kentucky
Current Conditions -  °F | °C
As of 9:56 PM on Wednesday 22 Oct 2014 (Local Time) from KSDF Reporting Station
Clear Clear  
Wind Chill: 11°   Ceiling: Unl
Heat Index: 11°   Visibility: 10mi
Dew Point:   Wind: 10mph
Humidity: 68%   Direction: 110°ESE
Pressure: 30.25"   Gusts: NA
Location:  38.06°N, 85.71°W
Report Text: KSDF 230156Z 11009KT 10SM CLR 11/05 A3025 RMK AO2 SLP245 T01060050
Loading
Personal Weather Stations






























Interactive Weather Map
Tropical Storm Tracking
New forecast layout! Learn more

10-Day Weather Forecast

Advertisements
Track Severe Weather on mobile